Pagrindinis puslapis
METAR-TAF:

METAR-TAF

Oro uostai :

Klamath Falls Airport (Kingsley Field)

Klamath Falls, Oregonas, Jungtinės Amerikos Valstijos

platuma: 42-08-49N, ilguma: 121-43-27W, Aukštis: 1247 m

Dabartinis oras

Ataskaita buvo paskelbta 1 valandą ir 8 minutes, ne 21:53 UTC
Vėjas 8 kt iš Šiaurės Rytų
Temperatūra 8°C
Drėgmė 29%
Slėgis 1023 hPa
Matomumas: 16.1 km
Giedras dangus

METAR: KLMT 252153Z 04008KT 10SM CLR 08/M09 A3021 RMK AO2 SLP234 T00831089

Laikas: 15:01 (23:01 UTC)

Prognozė

Ataskaita buvo paskelbta 5 valandos ir 11 minutes, ne 17:50 UTC
Prognozė galioja nuo 25 metu 18 UTC su 26 metu 18 UTC
Vėjas 3 kt nuo kintamojo kryptimis
Matomumas: 10 km
Giedras dangus

TAF: KLMT 251750Z 2518/2618 VRB03KT P6SM SKC

Orai ataskaitas ir orų prognozės (METAR, TAF).

turimą stotys yra geltonos ir raudonos taškus žemėlapyje.

Perkelti pele per norėdami pamatyti stoties vardą.

Tada spustelėkite, norėdami matyti oro stebėjimo ir prognozės.

Norėdami pakeisti žemėlapį: spustelėkite ant žalios mygtukų su juodo kryžiaus žemyn,; žalią mygtuką su brūkšneliu, jei norite nutolinti; arba žalių rodyklių gretimoms žemėlapius.


METAR-TAF: